sensor_id;sensor_type;location;lat;lon;timestamp;P1;durP1;ratioP1;P2;durP2;ratioP2
3783;SDS011;1907;49.238;9.262;2022-10-16T00:01:37;0.90;;;0.90;;
3783;SDS011;1907;49.238;9.262;2022-10-16T00:04:03;0.80;;;0.80;;
3783;SDS011;1907;49.238;9.262;2022-10-16T00:06:30;0.80;;;0.80;;
3783;SDS011;1907;49.238;9.262;2022-10-16T00:08:56;0.87;;;0.70;;
3783;SDS011;1907;49.238;9.262;2022-10-16T00:11:30;1.20;;;1.10;;
3783;SDS011;1907;49.238;9.262;2022-10-16T00:14:02;3.40;;;1.00;;
3783;SDS011;1907;49.238;9.262;2022-10-16T00:16:33;1.70;;;1.00;;
3783;SDS011;1907;49.238;9.262;2022-10-16T00:18:59;0.80;;;0.60;;
3783;SDS011;1907;49.238;9.262;2022-10-16T00:21:26;0.73;;;0.70;;
3783;SDS011;1907;49.238;9.262;2022-10-16T00:23:57;0.80;;;0.80;;
3783;SDS011;1907;49.238;9.262;2022-10-16T00:26:25;0.80;;;0.60;;
3783;SDS011;1907;49.238;9.262;2022-10-16T00:28:52;0.80;;;0.80;;
3783;SDS011;1907;49.238;9.262;2022-10-16T00:31:19;0.70;;;0.60;;
3783;SDS011;1907;49.238;9.262;2022-10-16T00:33:46;0.80;;;0.80;;
3783;SDS011;1907;49.238;9.262;2022-10-16T00:36:13;1.03;;;1.03;;
3783;SDS011;1907;49.238;9.262;2022-10-16T00:38:41;13.43;;;0.63;;
3783;SDS011;1907;49.238;9.262;2022-10-16T00:41:07;0.60;;;0.60;;
3783;SDS011;1907;49.238;9.262;2022-10-16T00:43:41;0.80;;;0.80;;
3783;SDS011;1907;49.238;9.262;2022-10-16T00:51:23;1.10;;;1.00;;
3783;SDS011;1907;49.238;9.262;2022-10-16T00:53:53;6.50;;;0.80;;
3783;SDS011;1907;49.238;9.262;2022-10-16T00:56:19;0.70;;;0.60;;
3783;SDS011;1907;49.238;9.262;2022-10-16T00:58:45;1.10;;;1.00;;
3783;SDS011;1907;49.238;9.262;2022-10-16T01:01:10;0.93;;;0.83;;
3783;SDS011;1907;49.238;9.262;2022-10-16T01:03:36;2.63;;;0.90;;
3783;SDS011;1907;49.238;9.262;2022-10-16T01:06:09;0.80;;;0.80;;
3783;SDS011;1907;49.238;9.262;2022-10-16T01:17:49;1.30;;;1.20;;
3783;SDS011;1907;49.238;9.262;2022-10-16T01:20:24;2.90;;;0.70;;
3783;SDS011;1907;49.238;9.262;2022-10-16T01:28:21;1.30;;;1.20;;
3783;SDS011;1907;49.238;9.262;2022-10-16T01:30:51;0.87;;;0.87;;
3783;SDS011;1907;49.238;9.262;2022-10-16T01:33:28;0.60;;;0.60;;
3783;SDS011;1907;49.238;9.262;2022-10-16T01:36:02;0.60;;;0.60;;
3783;SDS011;1907;49.238;9.262;2022-10-16T01:38:36;0.70;;;0.70;;
3783;SDS011;1907;49.238;9.262;2022-10-16T01:41:11;0.87;;;0.87;;
3783;SDS011;1907;49.238;9.262;2022-10-16T01:43:49;0.77;;;0.77;;
3783;SDS011;1907;49.238;9.262;2022-10-16T01:46:22;1.10;;;1.00;;
3783;SDS011;1907;49.238;9.262;2022-10-16T01:48:49;0.70;;;0.60;;
3783;SDS011;1907;49.238;9.262;2022-10-16T01:51:16;0.80;;;0.80;;
3783;SDS011;1907;49.238;9.262;2022-10-16T01:53:46;0.87;;;0.87;;
3783;SDS011;1907;49.238;9.262;2022-10-16T01:56:14;0.50;;;0.50;;
3783;SDS011;1907;49.238;9.262;2022-10-16T01:58:44;0.70;;;0.70;;
3783;SDS011;1907;49.238;9.262;2022-10-16T02:01:14;0.50;;;0.50;;
3783;SDS011;1907;49.238;9.262;2022-10-16T02:03:42;0.70;;;0.70;;
3783;SDS011;1907;49.238;9.262;2022-10-16T02:06:11;0.73;;;0.70;;
3783;SDS011;1907;49.238;9.262;2022-10-16T02:08:37;2.50;;;0.67;;
3783;SDS011;1907;49.238;9.262;2022-10-16T02:11:03;7.93;;;0.70;;
3783;SDS011;1907;49.238;9.262;2022-10-16T02:13:37;0.83;;;0.83;;
3783;SDS011;1907;49.238;9.262;2022-10-16T02:16:08;0.70;;;0.70;;
3783;SDS011;1907;49.238;9.262;2022-10-16T02:18:35;0.70;;;0.70;;
3783;SDS011;1907;49.238;9.262;2022-10-16T02:26:33;0.70;;;0.70;;
3783;SDS011;1907;49.238;9.262;2022-10-16T02:29:02;0.60;;;0.60;;
3783;SDS011;1907;49.238;9.262;2022-10-16T02:31:34;6.87;;;0.70;;
3783;SDS011;1907;49.238;9.262;2022-10-16T02:34:03;0.90;;;0.90;;
3783;SDS011;1907;49.238;9.262;2022-10-16T02:36:30;1.77;;;0.77;;
3783;SDS011;1907;49.238;9.262;2022-10-16T02:38:57;3.47;;;1.00;;
3783;SDS011;1907;49.238;9.262;2022-10-16T02:41:25;1.10;;;1.10;;
3783;SDS011;1907;49.238;9.262;2022-10-16T02:43:51;8.93;;;0.80;;
3783;SDS011;1907;49.238;9.262;2022-10-16T02:46:17;0.60;;;0.57;;
3783;SDS011;1907;49.238;9.262;2022-10-16T02:48:43;0.60;;;0.60;;
3783;SDS011;1907;49.238;9.262;2022-10-16T02:51:08;0.73;;;0.73;;
3783;SDS011;1907;49.238;9.262;2022-10-16T02:53:34;0.67;;;0.67;;
3783;SDS011;1907;49.238;9.262;2022-10-16T02:55:59;0.50;;;0.50;;
3783;SDS011;1907;49.238;9.262;2022-10-16T02:58:25;0.77;;;0.77;;
3783;SDS011;1907;49.238;9.262;2022-10-16T03:00:50;0.70;;;0.70;;
3783;SDS011;1907;49.238;9.262;2022-10-16T03:03:16;0.67;;;0.67;;
3783;SDS011;1907;49.238;9.262;2022-10-16T03:05:43;0.83;;;0.83;;
3783;SDS011;1907;49.238;9.262;2022-10-16T03:08:10;1.07;;;1.07;;
3783;SDS011;1907;49.238;9.262;2022-10-16T03:10:36;0.60;;;0.60;;
3783;SDS011;1907;49.238;9.262;2022-10-16T03:13:02;1.10;;;1.00;;
3783;SDS011;1907;49.238;9.262;2022-10-16T03:15:27;0.80;;;0.80;;
3783;SDS011;1907;49.238;9.262;2022-10-16T03:17:53;0.70;;;0.70;;
3783;SDS011;1907;49.238;9.262;2022-10-16T03:20:19;0.70;;;0.70;;
3783;SDS011;1907;49.238;9.262;2022-10-16T03:22:45;0.70;;;0.60;;
3783;SDS011;1907;49.238;9.262;2022-10-16T03:25:11;1.03;;;1.00;;
3783;SDS011;1907;49.238;9.262;2022-10-16T03:27:36;0.70;;;0.70;;
3783;SDS011;1907;49.238;9.262;2022-10-16T03:30:02;0.83;;;0.83;;
3783;SDS011;1907;49.238;9.262;2022-10-16T03:32:28;1.07;;;0.90;;
3783;SDS011;1907;49.238;9.262;2022-10-16T03:34:53;1.00;;;1.00;;
3783;SDS011;1907;49.238;9.262;2022-10-16T03:37:21;1.00;;;1.00;;
3783;SDS011;1907;49.238;9.262;2022-10-16T03:39:46;0.90;;;0.77;;
3783;SDS011;1907;49.238;9.262;2022-10-16T03:42:12;1.10;;;1.00;;
3783;SDS011;1907;49.238;9.262;2022-10-16T03:44:38;1.30;;;1.30;;
3783;SDS011;1907;49.238;9.262;2022-10-16T03:47:03;2.73;;;1.10;;
3783;SDS011;1907;49.238;9.262;2022-10-16T03:49:29;1.10;;;1.00;;
3783;SDS011;1907;49.238;9.262;2022-10-16T03:51:54;0.87;;;0.87;;
3783;SDS011;1907;49.238;9.262;2022-10-16T03:54:20;2.13;;;1.10;;
3783;SDS011;1907;49.238;9.262;2022-10-16T03:56:47;1.00;;;1.00;;
3783;SDS011;1907;49.238;9.262;2022-10-16T03:59:13;2.17;;;1.27;;
3783;SDS011;1907;49.238;9.262;2022-10-16T04:01:38;4.20;;;0.80;;
3783;SDS011;1907;49.238;9.262;2022-10-16T04:04:04;0.80;;;0.80;;
3783;SDS011;1907;49.238;9.262;2022-10-16T04:06:29;1.37;;;1.27;;
3783;SDS011;1907;49.238;9.262;2022-10-16T04:08:55;1.43;;;1.33;;
3783;SDS011;1907;49.238;9.262;2022-10-16T04:11:21;1.37;;;1.00;;
3783;SDS011;1907;49.238;9.262;2022-10-16T04:13:47;5.47;;;1.50;;
3783;SDS011;1907;49.238;9.262;2022-10-16T04:16:13;0.97;;;0.90;;
3783;SDS011;1907;49.238;9.262;2022-10-16T04:18:38;0.90;;;0.90;;
3783;SDS011;1907;49.238;9.262;2022-10-16T04:21:05;1.43;;;1.33;;
3783;SDS011;1907;49.238;9.262;2022-10-16T04:23:31;0.80;;;0.80;;
3783;SDS011;1907;49.238;9.262;2022-10-16T04:25:57;0.90;;;0.90;;
3783;SDS011;1907;49.238;9.262;2022-10-16T04:28:23;1.37;;;1.27;;
3783;SDS011;1907;49.238;9.262;2022-10-16T04:30:48;0.80;;;0.80;;
3783;SDS011;1907;49.238;9.262;2022-10-16T04:33:14;3.33;;;1.80;;
3783;SDS011;1907;49.238;9.262;2022-10-16T04:35:39;4.63;;;1.30;;
3783;SDS011;1907;49.238;9.262;2022-10-16T04:38:05;1.00;;;1.00;;
3783;SDS011;1907;49.238;9.262;2022-10-16T04:40:31;0.87;;;0.87;;
3783;SDS011;1907;49.238;9.262;2022-10-16T04:43:01;2.93;;;1.10;;
3783;SDS011;1907;49.238;9.262;2022-10-16T04:45:30;1.20;;;1.00;;
3783;SDS011;1907;49.238;9.262;2022-10-16T04:47:57;1.90;;;1.80;;
3783;SDS011;1907;49.238;9.262;2022-10-16T04:50:23;1.00;;;1.00;;
3783;SDS011;1907;49.238;9.262;2022-10-16T04:52:49;0.93;;;0.93;;
3783;SDS011;1907;49.238;9.262;2022-10-16T04:55:14;1.03;;;1.03;;
3783;SDS011;1907;49.238;9.262;2022-10-16T04:57:40;1.60;;;1.50;;
3783;SDS011;1907;49.238;9.262;2022-10-16T05:00:06;0.90;;;0.90;;
3783;SDS011;1907;49.238;9.262;2022-10-16T05:02:33;0.90;;;0.90;;
3783;SDS011;1907;49.238;9.262;2022-10-16T05:04:59;1.30;;;1.30;;
3783;SDS011;1907;49.238;9.262;2022-10-16T05:07:24;0.93;;;0.93;;
3783;SDS011;1907;49.238;9.262;2022-10-16T05:09:50;0.83;;;0.83;;
3783;SDS011;1907;49.238;9.262;2022-10-16T05:12:15;1.40;;;1.30;;
3783;SDS011;1907;49.238;9.262;2022-10-16T05:14:41;1.23;;;1.13;;
3783;SDS011;1907;49.238;9.262;2022-10-16T05:17:07;1.07;;;0.97;;
3783;SDS011;1907;49.238;9.262;2022-10-16T05:19:32;0.90;;;0.90;;
3783;SDS011;1907;49.238;9.262;2022-10-16T05:21:58;0.97;;;0.97;;
3783;SDS011;1907;49.238;9.262;2022-10-16T05:24:24;2.10;;;1.83;;
3783;SDS011;1907;49.238;9.262;2022-10-16T05:26:49;0.70;;;0.70;;
3783;SDS011;1907;49.238;9.262;2022-10-16T05:29:15;2.13;;;1.00;;
3783;SDS011;1907;49.238;9.262;2022-10-16T05:31:41;1.97;;;1.30;;
3783;SDS011;1907;49.238;9.262;2022-10-16T05:34:06;1.37;;;1.27;;
3783;SDS011;1907;49.238;9.262;2022-10-16T05:36:32;1.10;;;1.10;;
3783;SDS011;1907;49.238;9.262;2022-10-16T05:38:57;1.40;;;1.30;;
3783;SDS011;1907;49.238;9.262;2022-10-16T05:41:23;1.47;;;1.40;;
3783;SDS011;1907;49.238;9.262;2022-10-16T05:43:50;1.70;;;1.33;;
3783;SDS011;1907;49.238;9.262;2022-10-16T05:46:16;0.80;;;0.80;;
3783;SDS011;1907;49.238;9.262;2022-10-16T05:48:42;1.73;;;1.00;;
3783;SDS011;1907;49.238;9.262;2022-10-16T05:51:09;1.00;;;0.90;;
3783;SDS011;1907;49.238;9.262;2022-10-16T05:53:36;0.87;;;0.87;;
3783;SDS011;1907;49.238;9.262;2022-10-16T05:56:03;1.10;;;0.70;;
3783;SDS011;1907;49.238;9.262;2022-10-16T05:58:30;0.60;;;0.60;;
3783;SDS011;1907;49.238;9.262;2022-10-16T06:00:59;4.97;;;1.00;;
3783;SDS011;1907;49.238;9.262;2022-10-16T06:03:26;2.80;;;1.10;;
3783;SDS011;1907;49.238;9.262;2022-10-16T06:05:52;6.53;;;3.33;;
3783;SDS011;1907;49.238;9.262;2022-10-16T06:08:19;1.23;;;1.13;;
3783;SDS011;1907;49.238;9.262;2022-10-16T06:10:46;1.03;;;1.03;;
3783;SDS011;1907;49.238;9.262;2022-10-16T06:13:12;1.47;;;1.43;;
3783;SDS011;1907;49.238;9.262;2022-10-16T06:15:40;1.40;;;1.30;;
3783;SDS011;1907;49.238;9.262;2022-10-16T06:18:10;9.83;;;1.40;;
3783;SDS011;1907;49.238;9.262;2022-10-16T06:20:36;1.53;;;1.50;;
3783;SDS011;1907;49.238;9.262;2022-10-16T06:23:02;1.30;;;1.20;;
3783;SDS011;1907;49.238;9.262;2022-10-16T06:25:29;0.70;;;0.70;;
3783;SDS011;1907;49.238;9.262;2022-10-16T06:27:57;1.17;;;1.17;;
3783;SDS011;1907;49.238;9.262;2022-10-16T06:30:23;1.20;;;1.00;;
3783;SDS011;1907;49.238;9.262;2022-10-16T06:32:49;0.97;;;0.97;;
3783;SDS011;1907;49.238;9.262;2022-10-16T06:35:14;1.17;;;1.07;;
3783;SDS011;1907;49.238;9.262;2022-10-16T06:37:40;0.60;;;0.60;;
3783;SDS011;1907;49.238;9.262;2022-10-16T06:40:06;4.70;;;0.90;;
3783;SDS011;1907;49.238;9.262;2022-10-16T06:42:32;0.80;;;0.80;;
3783;SDS011;1907;49.238;9.262;2022-10-16T06:44:57;2.53;;;0.83;;
3783;SDS011;1907;49.238;9.262;2022-10-16T06:47:23;0.80;;;0.80;;
3783;SDS011;1907;49.238;9.262;2022-10-16T06:49:48;1.80;;;0.80;;
3783;SDS011;1907;49.238;9.262;2022-10-16T06:52:14;1.43;;;0.70;;
3783;SDS011;1907;49.238;9.262;2022-10-16T06:54:39;1.07;;;1.00;;
3783;SDS011;1907;49.238;9.262;2022-10-16T06:57:05;1.03;;;0.93;;
3783;SDS011;1907;49.238;9.262;2022-10-16T06:59:30;1.10;;;1.00;;
3783;SDS011;1907;49.238;9.262;2022-10-16T07:01:56;1.03;;;0.93;;
3783;SDS011;1907;49.238;9.262;2022-10-16T07:04:22;1.73;;;0.60;;
3783;SDS011;1907;49.238;9.262;2022-10-16T07:06:47;1.03;;;1.03;;
3783;SDS011;1907;49.238;9.262;2022-10-16T07:09:13;12.53;;;1.10;;
3783;SDS011;1907;49.238;9.262;2022-10-16T07:11:39;5.30;;;1.10;;
3783;SDS011;1907;49.238;9.262;2022-10-16T07:14:10;1.27;;;1.17;;
3783;SDS011;1907;49.238;9.262;2022-10-16T07:16:40;2.20;;;1.23;;
3783;SDS011;1907;49.238;9.262;2022-10-16T07:19:05;2.60;;;2.50;;
3783;SDS011;1907;49.238;9.262;2022-10-16T07:21:32;2.60;;;2.50;;
3783;SDS011;1907;49.238;9.262;2022-10-16T07:24:02;4.07;;;3.87;;
3783;SDS011;1907;49.238;9.262;2022-10-16T07:26:30;3.13;;;3.03;;
3783;SDS011;1907;49.238;9.262;2022-10-16T07:28:57;4.60;;;4.23;;
3783;SDS011;1907;49.238;9.262;2022-10-16T07:31:23;4.97;;;2.10;;
3783;SDS011;1907;49.238;9.262;2022-10-16T07:33:49;1.83;;;0.57;;
3783;SDS011;1907;49.238;9.262;2022-10-16T07:36:16;0.60;;;0.60;;
3783;SDS011;1907;49.238;9.262;2022-10-16T07:38:44;0.67;;;0.67;;
3783;SDS011;1907;49.238;9.262;2022-10-16T07:41:11;12.33;;;0.90;;
3783;SDS011;1907;49.238;9.262;2022-10-16T07:43:38;0.80;;;0.80;;
3783;SDS011;1907;49.238;9.262;2022-10-16T07:46:05;0.80;;;0.77;;
3783;SDS011;1907;49.238;9.262;2022-10-16T07:48:32;0.70;;;0.70;;
3783;SDS011;1907;49.238;9.262;2022-10-16T07:50:59;0.80;;;0.80;;
3783;SDS011;1907;49.238;9.262;2022-10-16T07:53:26;0.77;;;0.77;;
3783;SDS011;1907;49.238;9.262;2022-10-16T07:55:52;0.73;;;0.70;;
3783;SDS011;1907;49.238;9.262;2022-10-16T07:58:17;0.60;;;0.60;;
3783;SDS011;1907;49.238;9.262;2022-10-16T08:00:43;2.83;;;0.60;;
3783;SDS011;1907;49.238;9.262;2022-10-16T08:03:08;1.93;;;1.83;;
3783;SDS011;1907;49.238;9.262;2022-10-16T08:05:34;3.63;;;0.70;;
3783;SDS011;1907;49.238;9.262;2022-10-16T08:08:00;2.80;;;1.10;;
3783;SDS011;1907;49.238;9.262;2022-10-16T08:10:27;0.70;;;0.63;;
3783;SDS011;1907;49.238;9.262;2022-10-16T08:12:53;3.83;;;0.77;;
3783;SDS011;1907;49.238;9.262;2022-10-16T08:15:19;5.90;;;0.90;;
3783;SDS011;1907;49.238;9.262;2022-10-16T08:17:53;1.10;;;1.10;;
3783;SDS011;1907;49.238;9.262;2022-10-16T08:20:26;2.13;;;1.10;;
3783;SDS011;1907;49.238;9.262;2022-10-16T08:22:53;1.03;;;1.03;;
3783;SDS011;1907;49.238;9.262;2022-10-16T08:25:19;0.70;;;0.70;;
3783;SDS011;1907;49.238;9.262;2022-10-16T08:27:45;1.07;;;1.00;;
3783;SDS011;1907;49.238;9.262;2022-10-16T08:30:12;0.70;;;0.70;;
3783;SDS011;1907;49.238;9.262;2022-10-16T08:32:37;1.00;;;1.00;;
3783;SDS011;1907;49.238;9.262;2022-10-16T08:35:03;1.23;;;0.70;;
3783;SDS011;1907;49.238;9.262;2022-10-16T08:37:29;1.07;;;0.70;;
3783;SDS011;1907;49.238;9.262;2022-10-16T08:39:55;2.40;;;0.73;;
3783;SDS011;1907;49.238;9.262;2022-10-16T08:42:25;0.70;;;0.70;;
3783;SDS011;1907;49.238;9.262;2022-10-16T08:48:15;1.03;;;0.80;;
3783;SDS011;1907;49.238;9.262;2022-10-16T08:50:57;1.20;;;1.10;;
3783;SDS011;1907;49.238;9.262;2022-10-16T08:53:28;1.23;;;1.23;;
3783;SDS011;1907;49.238;9.262;2022-10-16T08:56:01;0.63;;;0.63;;
3783;SDS011;1907;49.238;9.262;2022-10-16T08:58:27;3.43;;;0.90;;
3783;SDS011;1907;49.238;9.262;2022-10-16T09:00:55;8.13;;;0.90;;
3783;SDS011;1907;49.238;9.262;2022-10-16T09:06:46;1.43;;;0.80;;
3783;SDS011;1907;49.238;9.262;2022-10-16T09:12:36;1.17;;;1.00;;
3783;SDS011;1907;49.238;9.262;2022-10-16T09:17:49;0.50;;;0.50;;
3783;SDS011;1907;49.238;9.262;2022-10-16T09:20:29;3.50;;;0.90;;
3783;SDS011;1907;49.238;9.262;2022-10-16T09:23:00;0.80;;;0.60;;
3783;SDS011;1907;49.238;9.262;2022-10-16T09:25:37;0.80;;;0.70;;
3783;SDS011;1907;49.238;9.262;2022-10-16T09:28:07;7.93;;;0.80;;
3783;SDS011;1907;49.238;9.262;2022-10-16T09:30:34;0.70;;;0.70;;
3783;SDS011;1907;49.238;9.262;2022-10-16T09:32:59;0.70;;;0.60;;
3783;SDS011;1907;49.238;9.262;2022-10-16T09:35:35;0.80;;;0.77;;
3783;SDS011;1907;49.238;9.262;2022-10-16T09:38:06;0.80;;;0.70;;
3783;SDS011;1907;49.238;9.262;2022-10-16T09:40:34;1.13;;;0.50;;
3783;SDS011;1907;49.238;9.262;2022-10-16T09:43:03;1.03;;;0.97;;
3783;SDS011;1907;49.238;9.262;2022-10-16T09:45:40;0.70;;;0.60;;
3783;SDS011;1907;49.238;9.262;2022-10-16T09:48:12;0.77;;;0.60;;
3783;SDS011;1907;49.238;9.262;2022-10-16T09:50:43;0.70;;;0.60;;
3783;SDS011;1907;49.238;9.262;2022-10-16T09:53:19;0.70;;;0.60;;
3783;SDS011;1907;49.238;9.262;2022-10-16T09:55:51;0.63;;;0.53;;
3783;SDS011;1907;49.238;9.262;2022-10-16T09:58:17;2.20;;;0.60;;
3783;SDS011;1907;49.238;9.262;2022-10-16T10:00:49;0.87;;;0.60;;
3783;SDS011;1907;49.238;9.262;2022-10-16T10:05:55;1.10;;;0.53;;
3783;SDS011;1907;49.238;9.262;2022-10-16T10:08:21;0.97;;;0.87;;
3783;SDS011;1907;49.238;9.262;2022-10-16T10:10:47;0.60;;;0.50;;
3783;SDS011;1907;49.238;9.262;2022-10-16T10:13:18;1.03;;;0.87;;
3783;SDS011;1907;49.238;9.262;2022-10-16T10:15:45;1.00;;;0.70;;
3783;SDS011;1907;49.238;9.262;2022-10-16T10:18:20;0.80;;;0.80;;
3783;SDS011;1907;49.238;9.262;2022-10-16T10:20:58;2.30;;;0.60;;
3783;SDS011;1907;49.238;9.262;2022-10-16T10:23:26;0.67;;;0.67;;
3783;SDS011;1907;49.238;9.262;2022-10-16T10:31:14;0.73;;;0.60;;
3783;SDS011;1907;49.238;9.262;2022-10-16T10:36:42;0.70;;;0.60;;
3783;SDS011;1907;49.238;9.262;2022-10-16T10:39:19;0.60;;;0.57;;
3783;SDS011;1907;49.238;9.262;2022-10-16T10:42:07;0.60;;;0.60;;
3783;SDS011;1907;49.238;9.262;2022-10-16T10:50:23;0.90;;;0.90;;
3783;SDS011;1907;49.238;9.262;2022-10-16T10:55:45;1.30;;;1.20;;
3783;SDS011;1907;49.238;9.262;2022-10-16T11:00:51;1.70;;;0.80;;
3783;SDS011;1907;49.238;9.262;2022-10-16T11:06:22;1.20;;;0.50;;
3783;SDS011;1907;49.238;9.262;2022-10-16T11:08:53;1.23;;;1.10;;
3783;SDS011;1907;49.238;9.262;2022-10-16T11:13:58;0.60;;;0.43;;
3783;SDS011;1907;49.238;9.262;2022-10-16T11:16:52;0.60;;;0.50;;
3783;SDS011;1907;49.238;9.262;2022-10-16T11:19:31;0.50;;;0.50;;
3783;SDS011;1907;49.238;9.262;2022-10-16T11:30:12;0.50;;;0.40;;
3783;SDS011;1907;49.238;9.262;2022-10-16T11:35:52;0.60;;;0.60;;
3783;SDS011;1907;49.238;9.262;2022-10-16T11:38:38;1.50;;;0.50;;
3783;SDS011;1907;49.238;9.262;2022-10-16T11:49:52;2.00;;;0.57;;
3783;SDS011;1907;49.238;9.262;2022-10-16T11:52:30;1.07;;;0.93;;
3783;SDS011;1907;49.238;9.262;2022-10-16T11:54:59;0.80;;;0.50;;
3783;SDS011;1907;49.238;9.262;2022-10-16T11:57:33;3.80;;;0.90;;
3783;SDS011;1907;49.238;9.262;2022-10-16T12:00:06;0.80;;;0.80;;
3783;SDS011;1907;49.238;9.262;2022-10-16T12:02:44;0.77;;;0.77;;
3783;SDS011;1907;49.238;9.262;2022-10-16T12:08:23;0.80;;;0.70;;
3783;SDS011;1907;49.238;9.262;2022-10-16T12:10:49;0.73;;;0.67;;
3783;SDS011;1907;49.238;9.262;2022-10-16T12:18:39;0.70;;;0.70;;
3783;SDS011;1907;49.238;9.262;2022-10-16T12:21:10;0.60;;;0.50;;
3783;SDS011;1907;49.238;9.262;2022-10-16T12:23:52;3.97;;;0.83;;
3783;SDS011;1907;49.238;9.262;2022-10-16T12:26:24;0.93;;;0.70;;
3783;SDS011;1907;49.238;9.262;2022-10-16T12:29:12;0.80;;;0.70;;
3783;SDS011;1907;49.238;9.262;2022-10-16T12:31:57;2.10;;;0.90;;
3783;SDS011;1907;49.238;9.262;2022-10-16T12:34:29;2.80;;;0.60;;
3783;SDS011;1907;49.238;9.262;2022-10-16T12:39:40;0.70;;;0.70;;
3783;SDS011;1907;49.238;9.262;2022-10-16T12:45:27;0.70;;;0.70;;
3783;SDS011;1907;49.238;9.262;2022-10-16T12:47:57;4.30;;;0.77;;
3783;SDS011;1907;49.238;9.262;2022-10-16T12:52:53;3.70;;;1.07;;
3783;SDS011;1907;49.238;9.262;2022-10-16T12:55:19;0.87;;;0.87;;
3783;SDS011;1907;49.238;9.262;2022-10-16T13:05:54;8.00;;;0.90;;
3783;SDS011;1907;49.238;9.262;2022-10-16T13:19:14;0.80;;;0.70;;
3783;SDS011;1907;49.238;9.262;2022-10-16T13:22:03;0.83;;;0.83;;
3783;SDS011;1907;49.238;9.262;2022-10-16T13:27:21;0.80;;;0.70;;
3783;SDS011;1907;49.238;9.262;2022-10-16T13:30:19;2.73;;;0.87;;
3783;SDS011;1907;49.238;9.262;2022-10-16T13:32:49;1.00;;;0.90;;
3783;SDS011;1907;49.238;9.262;2022-10-16T13:35:26;2.50;;;0.90;;
3783;SDS011;1907;49.238;9.262;2022-10-16T13:40:34;0.70;;;0.70;;
3783;SDS011;1907;49.238;9.262;2022-10-16T13:43:00;0.80;;;0.80;;
3783;SDS011;1907;49.238;9.262;2022-10-16T13:45:26;0.70;;;0.63;;
3783;SDS011;1907;49.238;9.262;2022-10-16T13:48:01;1.90;;;0.70;;
3783;SDS011;1907;49.238;9.262;2022-10-16T13:50:28;0.77;;;0.77;;
3783;SDS011;1907;49.238;9.262;2022-10-16T13:53:03;1.43;;;0.90;;
3783;SDS011;1907;49.238;9.262;2022-10-16T13:55:29;1.27;;;0.63;;
3783;SDS011;1907;49.238;9.262;2022-10-16T13:58:14;0.73;;;0.63;;
3783;SDS011;1907;49.238;9.262;2022-10-16T14:00:41;1.07;;;0.97;;
3783;SDS011;1907;49.238;9.262;2022-10-16T14:03:19;1.00;;;0.90;;
3783;SDS011;1907;49.238;9.262;2022-10-16T14:06:06;1.40;;;0.63;;
3783;SDS011;1907;49.238;9.262;2022-10-16T14:08:37;3.50;;;1.20;;
3783;SDS011;1907;49.238;9.262;2022-10-16T14:11:08;0.77;;;0.77;;
3783;SDS011;1907;49.238;9.262;2022-10-16T14:13:36;2.27;;;0.80;;
3783;SDS011;1907;49.238;9.262;2022-10-16T14:16:08;0.90;;;0.77;;
3783;SDS011;1907;49.238;9.262;2022-10-16T14:18:40;0.80;;;0.80;;
3783;SDS011;1907;49.238;9.262;2022-10-16T14:21:07;6.57;;;1.10;;
3783;SDS011;1907;49.238;9.262;2022-10-16T14:23:39;0.70;;;0.70;;
3783;SDS011;1907;49.238;9.262;2022-10-16T14:26:15;1.37;;;1.27;;
3783;SDS011;1907;49.238;9.262;2022-10-16T14:28:44;5.20;;;1.17;;
3783;SDS011;1907;49.238;9.262;2022-10-16T14:33:59;0.70;;;0.67;;
3783;SDS011;1907;49.238;9.262;2022-10-16T14:36:25;0.60;;;0.60;;
3783;SDS011;1907;49.238;9.262;2022-10-16T14:41:26;1.00;;;0.80;;
3783;SDS011;1907;49.238;9.262;2022-10-16T14:43:54;0.70;;;0.70;;
3783;SDS011;1907;49.238;9.262;2022-10-16T14:46:22;0.83;;;0.83;;
3783;SDS011;1907;49.238;9.262;2022-10-16T14:49:00;0.83;;;0.83;;
3783;SDS011;1907;49.238;9.262;2022-10-16T14:51:33;0.80;;;0.80;;
3783;SDS011;1907;49.238;9.262;2022-10-16T14:53:59;0.77;;;0.77;;
3783;SDS011;1907;49.238;9.262;2022-10-16T14:56:25;0.87;;;0.70;;
3783;SDS011;1907;49.238;9.262;2022-10-16T14:59:07;1.07;;;0.90;;
3783;SDS011;1907;49.238;9.262;2022-10-16T15:01:40;0.70;;;0.70;;
3783;SDS011;1907;49.238;9.262;2022-10-16T15:04:09;0.70;;;0.70;;
3783;SDS011;1907;49.238;9.262;2022-10-16T15:06:36;1.00;;;0.90;;
3783;SDS011;1907;49.238;9.262;2022-10-16T15:09:02;0.90;;;0.73;;
3783;SDS011;1907;49.238;9.262;2022-10-16T15:11:28;0.93;;;0.90;;
3783;SDS011;1907;49.238;9.262;2022-10-16T15:13:54;1.23;;;0.97;;
3783;SDS011;1907;49.238;9.262;2022-10-16T15:16:20;0.80;;;0.80;;
3783;SDS011;1907;49.238;9.262;2022-10-16T15:18:45;0.90;;;0.90;;
3783;SDS011;1907;49.238;9.262;2022-10-16T15:21:20;4.30;;;0.90;;
3783;SDS011;1907;49.238;9.262;2022-10-16T15:23:51;1.03;;;0.93;;
3783;SDS011;1907;49.238;9.262;2022-10-16T15:26:17;1.23;;;1.13;;
3783;SDS011;1907;49.238;9.262;2022-10-16T15:28:42;0.90;;;0.90;;
3783;SDS011;1907;49.238;9.262;2022-10-16T15:31:08;9.70;;;3.33;;
3783;SDS011;1907;49.238;9.262;2022-10-16T15:33:33;0.77;;;0.77;;
3783;SDS011;1907;49.238;9.262;2022-10-16T15:36:00;2.30;;;1.33;;
3783;SDS011;1907;49.238;9.262;2022-10-16T15:38:27;0.87;;;0.80;;
3783;SDS011;1907;49.238;9.262;2022-10-16T15:40:53;1.03;;;0.93;;
3783;SDS011;1907;49.238;9.262;2022-10-16T15:43:19;0.53;;;0.53;;
3783;SDS011;1907;49.238;9.262;2022-10-16T15:46:05;1.23;;;1.13;;
3783;SDS011;1907;49.238;9.262;2022-10-16T15:48:33;3.70;;;1.93;;
3783;SDS011;1907;49.238;9.262;2022-10-16T15:51:05;4.90;;;1.07;;
3783;SDS011;1907;49.238;9.262;2022-10-16T15:53:32;0.80;;;0.80;;
3783;SDS011;1907;49.238;9.262;2022-10-16T15:56:01;1.43;;;1.33;;
3783;SDS011;1907;49.238;9.262;2022-10-16T15:58:30;2.50;;;1.17;;
3783;SDS011;1907;49.238;9.262;2022-10-16T16:01:00;9.50;;;1.10;;
3783;SDS011;1907;49.238;9.262;2022-10-16T16:03:26;4.50;;;2.10;;
3783;SDS011;1907;49.238;9.262;2022-10-16T16:05:53;2.13;;;0.90;;
3783;SDS011;1907;49.238;9.262;2022-10-16T16:08:19;1.27;;;1.27;;
3783;SDS011;1907;49.238;9.262;2022-10-16T16:10:45;1.40;;;1.30;;
3783;SDS011;1907;49.238;9.262;2022-10-16T16:13:11;0.80;;;0.80;;
3783;SDS011;1907;49.238;9.262;2022-10-16T16:15:39;1.40;;;1.10;;
3783;SDS011;1907;49.238;9.262;2022-10-16T16:18:05;1.00;;;1.00;;
3783;SDS011;1907;49.238;9.262;2022-10-16T16:20:31;3.20;;;0.73;;
3783;SDS011;1907;49.238;9.262;2022-10-16T16:22:57;0.80;;;0.80;;
3783;SDS011;1907;49.238;9.262;2022-10-16T16:25:23;1.80;;;1.70;;
3783;SDS011;1907;49.238;9.262;2022-10-16T16:27:48;1.30;;;1.20;;
3783;SDS011;1907;49.238;9.262;2022-10-16T16:30:14;0.90;;;0.90;;
3783;SDS011;1907;49.238;9.262;2022-10-16T16:32:39;1.47;;;1.37;;
3783;SDS011;1907;49.238;9.262;2022-10-16T16:35:05;1.20;;;0.93;;
3783;SDS011;1907;49.238;9.262;2022-10-16T16:37:31;3.90;;;2.93;;
3783;SDS011;1907;49.238;9.262;2022-10-16T16:39:57;2.43;;;2.33;;
3783;SDS011;1907;49.238;9.262;2022-10-16T16:42:23;3.93;;;3.10;;
3783;SDS011;1907;49.238;9.262;2022-10-16T16:44:50;4.60;;;4.30;;
3783;SDS011;1907;49.238;9.262;2022-10-16T16:47:16;4.50;;;2.07;;
3783;SDS011;1907;49.238;9.262;2022-10-16T16:49:41;2.57;;;2.47;;
3783;SDS011;1907;49.238;9.262;2022-10-16T16:52:07;2.93;;;2.37;;
3783;SDS011;1907;49.238;9.262;2022-10-16T16:54:33;2.10;;;1.90;;
3783;SDS011;1907;49.238;9.262;2022-10-16T16:56:58;4.63;;;4.33;;
3783;SDS011;1907;49.238;9.262;2022-10-16T16:59:24;2.83;;;2.73;;
3783;SDS011;1907;49.238;9.262;2022-10-16T17:01:49;4.50;;;4.10;;
3783;SDS011;1907;49.238;9.262;2022-10-16T17:04:16;5.10;;;4.80;;
3783;SDS011;1907;49.238;9.262;2022-10-16T17:06:42;4.50;;;2.53;;
3783;SDS011;1907;49.238;9.262;2022-10-16T17:09:08;3.93;;;3.80;;
3783;SDS011;1907;49.238;9.262;2022-10-16T17:11:34;3.77;;;3.40;;
3783;SDS011;1907;49.238;9.262;2022-10-16T17:14:00;2.97;;;2.77;;
3783;SDS011;1907;49.238;9.262;2022-10-16T17:16:29;4.07;;;2.40;;
3783;SDS011;1907;49.238;9.262;2022-10-16T17:19:01;2.20;;;2.10;;
3783;SDS011;1907;49.238;9.262;2022-10-16T17:21:28;4.83;;;2.17;;
3783;SDS011;1907;49.238;9.262;2022-10-16T17:23:54;3.37;;;3.10;;
3783;SDS011;1907;49.238;9.262;2022-10-16T17:26:20;2.20;;;2.10;;
3783;SDS011;1907;49.238;9.262;2022-10-16T17:28:49;2.03;;;1.93;;
3783;SDS011;1907;49.238;9.262;2022-10-16T17:31:17;2.37;;;2.27;;
3783;SDS011;1907;49.238;9.262;2022-10-16T17:33:44;2.40;;;2.30;;
3783;SDS011;1907;49.238;9.262;2022-10-16T17:36:11;5.40;;;2.40;;